createdAt,value
2022-08-05T00:02:12.242Z,45.37
2022-08-05T00:08:00.301Z,45.32
2022-08-05T00:13:18.718Z,45.00
2022-08-05T00:18:42.944Z,45.45
2022-08-05T00:24:11.038Z,45.42
2022-08-05T00:29:38.141Z,45.25
2022-08-05T00:35:06.153Z,45.37
2022-08-05T00:40:29.463Z,45.00
2022-08-05T00:45:50.436Z,45.13
2022-08-05T00:51:51.763Z,45.22
2022-08-05T00:56:55.784Z,45.21
2022-08-05T01:02:16.646Z,45.19
2022-08-05T01:07:37.667Z,45.21
2022-08-05T01:13:58.302Z,45.08
2022-08-05T01:19:56.002Z,45.43
2022-08-05T01:25:40.407Z,45.71
2022-08-05T01:31:28.115Z,45.53
2022-08-05T01:37:03.229Z,45.54
2022-08-05T01:42:26.947Z,45.72
2022-08-05T01:47:50.170Z,45.75
2022-08-05T01:53:17.345Z,45.43
2022-08-05T01:59:00.707Z,45.79
2022-08-05T02:04:24.229Z,45.73
2022-08-05T02:09:46.461Z,45.95
2022-08-05T02:15:13.068Z,46.21
2022-08-05T02:20:49.754Z,46.12
2022-08-05T02:26:17.081Z,46.01
2022-08-05T02:31:40.552Z,46.18
2022-08-05T02:37:04.473Z,46.35
2022-08-05T02:42:30.733Z,46.40
2022-08-05T02:48:06.623Z,46.56
2022-08-05T02:53:39.431Z,46.26
2022-08-05T02:59:02.129Z,46.29
2022-08-05T03:04:23.182Z,46.07
2022-08-05T03:09:51.595Z,46.44
2022-08-05T03:15:12.656Z,46.37
2022-08-05T03:20:33.155Z,46.70
2022-08-05T03:26:04.267Z,46.73
2022-08-05T03:31:57.194Z,46.59
2022-08-05T03:37:15.860Z,47.07
2022-08-05T03:42:41.853Z,47.38
2022-08-05T03:48:14.049Z,47.43
2022-08-05T03:55:06.890Z,47.79
2022-08-05T03:59:47.343Z,48.11
2022-08-05T04:05:15.931Z,47.64
2022-08-05T04:10:38.397Z,47.80
2022-08-05T04:16:04.250Z,47.75
2022-08-05T04:22:05.830Z,47.74
2022-08-05T04:27:06.301Z,47.52
2022-08-05T04:32:31.292Z,47.33
2022-08-05T04:38:02.540Z,47.37
2022-08-05T04:43:27.594Z,47.07
2022-08-05T04:48:48.084Z,46.73
2022-08-05T04:54:12.493Z,46.69
2022-08-05T04:59:38.391Z,45.69
2022-08-05T05:05:01.781Z,45.08
2022-08-05T05:10:24.135Z,45.64
2022-08-05T05:15:56.714Z,45.26
2022-08-05T05:21:22.829Z,45.39
2022-08-05T05:26:51.923Z,46.23
2022-08-05T05:32:15.746Z,46.45
2022-08-05T05:37:59.824Z,46.33
2022-08-05T05:43:56.488Z,46.43
2022-08-05T05:49:06.425Z,46.29
2022-08-05T05:54:35.456Z,46.55
2022-08-05T06:00:17.681Z,46.48
2022-08-05T06:05:38.612Z,46.11
2022-08-05T06:10:59.737Z,46.16
2022-08-05T06:16:28.359Z,46.34
2022-08-05T06:21:52.800Z,45.26
2022-08-05T06:28:08.734Z,45.57
2022-08-05T06:32:55.739Z,45.92
2022-08-05T06:38:17.265Z,45.43
2022-08-05T06:44:00.413Z,44.71
2022-08-05T06:50:01.813Z,44.98
2022-08-05T06:55:02.754Z,44.11
2022-08-05T07:00:24.688Z,43.98
2022-08-05T07:05:46.560Z,43.11
2022-08-05T07:11:07.287Z,42.33
2022-08-05T07:18:01.693Z,42.17
2022-08-05T07:22:32.952Z,42.35
2022-08-05T07:27:57.251Z,41.89
2022-08-05T07:33:36.526Z,41.92
2022-08-05T07:38:58.197Z,41.55
2022-08-05T07:44:19.681Z,41.48
2022-08-05T07:49:43.404Z,41.88
2022-08-05T07:55:15.870Z,42.17
2022-08-05T08:00:56.426Z,42.03
2022-08-05T08:06:17.805Z,41.85
2022-08-05T08:11:48.249Z,41.91
2022-08-05T08:17:16.401Z,42.08
2022-08-05T08:22:37.470Z,41.82
2022-08-05T08:27:59.597Z,41.97
2022-08-05T08:33:20.193Z,41.80
2022-08-05T08:38:41.028Z,42.17
2022-08-05T08:45:20.621Z,41.88
2022-08-05T08:50:14.290Z,42.04
2022-08-05T08:56:01.901Z,42.89
2022-08-05T09:01:15.609Z,42.25
2022-08-05T09:06:37.701Z,42.36
2022-08-05T09:12:14.343Z,42.42
2022-08-05T09:17:45.738Z,42.04
2022-08-05T09:23:18.562Z,42.86
2022-08-05T09:28:41.087Z,43.00
2022-08-05T09:34:05.127Z,42.51
2022-08-05T09:39:41.917Z,43.00
2022-08-05T09:46:02.694Z,42.69
2022-08-05T09:50:51.655Z,42.31
2022-08-05T09:56:13.390Z,42.63
2022-08-05T10:01:36.934Z,42.65
2022-08-05T10:07:01.546Z,42.78
2022-08-05T10:12:49.990Z,42.24
2022-08-05T10:18:22.534Z,42.10
2022-08-05T10:23:55.479Z,42.06
2022-08-05T10:29:22.002Z,42.21
2022-08-05T10:34:45.605Z,41.85
2022-08-05T10:40:19.548Z,41.68
2022-08-05T10:45:42.349Z,41.78
2022-08-05T10:51:22.489Z,41.67
2022-08-05T10:56:52.923Z,41.42
2022-08-05T11:02:37.656Z,41.13
2022-08-05T11:08:02.680Z,41.03
2022-08-05T11:13:54.854Z,41.61
2022-08-05T11:20:10.226Z,40.74
2022-08-05T11:26:04.815Z,41.32
2022-08-05T11:31:58.330Z,41.16
2022-08-05T11:38:28.524Z,41.44
2022-08-05T11:44:05.093Z,40.93
2022-08-05T11:49:09.971Z,40.51
2022-08-05T11:54:34.890Z,40.73
2022-08-05T11:59:55.871Z,40.48
2022-08-05T12:05:36.434Z,40.13
2022-08-05T12:11:05.479Z,40.23
2022-08-05T12:16:28.887Z,40.15
2022-08-05T12:21:51.113Z,40.00
2022-08-05T12:27:25.350Z,39.68
2022-08-05T12:32:53.663Z,39.96
2022-08-05T12:38:18.424Z,39.89
2022-08-05T12:43:55.072Z,40.21
2022-08-05T12:49:16.191Z,39.64
2022-08-05T12:54:41.208Z,39.57
2022-08-05T13:02:00.762Z,39.76
2022-08-05T13:05:42.958Z,39.38
2022-08-05T13:11:04.154Z,39.60
2022-08-05T13:16:27.715Z,39.26
2022-08-05T13:21:52.585Z,39.69
2022-08-05T13:27:37.489Z,39.08
2022-08-05T13:33:01.392Z,39.24
2022-08-05T13:38:31.056Z,38.82
2022-08-05T13:43:55.528Z,39.01
2022-08-05T13:49:15.945Z,39.02
2022-08-05T13:54:36.488Z,38.80
2022-08-05T14:00:01.858Z,39.09
2022-08-05T14:06:24.780Z,38.89
2022-08-05T14:11:20.489Z,38.99
2022-08-05T14:16:43.265Z,39.36
2022-08-05T14:22:12.124Z,38.96
2022-08-05T14:27:33.049Z,38.78
2022-08-05T14:32:54.182Z,39.00
2022-08-05T14:38:32.341Z,38.37
2022-08-05T14:44:02.551Z,39.67
2022-08-05T14:49:56.418Z,41.27
2022-08-05T14:55:14.003Z,40.84
2022-08-05T15:00:39.207Z,41.19
2022-08-05T15:06:20.064Z,40.35
2022-08-05T15:11:52.656Z,40.13
2022-08-05T15:17:45.602Z,40.32
2022-08-05T15:22:55.071Z,40.59
2022-08-05T15:28:16.739Z,41.78
2022-08-05T15:34:05.063Z,42.00
2022-08-05T15:41:01.993Z,42.42
2022-08-05T15:44:59.588Z,43.19
2022-08-05T15:50:20.929Z,43.12
2022-08-05T15:56:02.934Z,42.93
2022-08-05T16:01:29.456Z,42.95
2022-08-05T16:06:50.476Z,42.81
2022-08-05T16:12:11.462Z,42.85
2022-08-05T16:17:32.681Z,43.27
2022-08-05T16:22:53.342Z,44.26
2022-08-05T16:28:15.632Z,43.73
2022-08-05T16:33:41.334Z,44.21
2022-08-05T16:39:02.507Z,44.29
2022-08-05T16:44:25.769Z,44.48
2022-08-05T16:49:47.186Z,44.19
2022-08-05T16:55:14.345Z,44.97
2022-08-05T17:00:37.739Z,44.82
2022-08-05T17:06:00.516Z,44.77
2022-08-05T17:11:23.761Z,45.07
2022-08-05T17:16:46.270Z,45.67
2022-08-05T17:22:25.142Z,45.58
2022-08-05T17:27:46.596Z,46.12
2022-08-05T17:33:07.850Z,46.13
2022-08-05T17:38:29.424Z,46.26
2022-08-05T17:43:53.223Z,46.70
2022-08-05T17:49:14.266Z,47.23
2022-08-05T17:54:37.535Z,47.22
2022-08-05T18:00:03.078Z,46.19
2022-08-05T18:05:28.234Z,47.32
2022-08-05T18:10:56.203Z,47.46
2022-08-05T18:16:18.088Z,47.16
2022-08-05T18:22:09.353Z,46.23
2022-08-05T18:27:22.414Z,46.50
2022-08-05T18:32:43.062Z,46.98
2022-08-05T18:38:26.309Z,46.93
2022-08-05T18:43:48.687Z,47.41
2022-08-05T18:49:30.392Z,47.64
2022-08-05T18:54:51.511Z,48.03
2022-08-05T19:00:20.267Z,47.93
2022-08-05T19:06:11.658Z,47.93
2022-08-05T19:11:27.893Z,47.94
2022-08-05T19:16:49.649Z,47.76
2022-08-05T19:22:12.480Z,47.88
2022-08-05T19:27:39.061Z,47.74
2022-08-05T19:33:00.513Z,48.21
2022-08-05T19:38:26.432Z,47.66
2022-08-05T19:44:05.347Z,47.97
2022-08-05T19:54:27.225Z,48.90
2022-08-05T20:05:28.683Z,49.22
2022-08-05T20:11:04.278Z,49.55
2022-08-05T20:16:26.533Z,50.25
2022-08-05T20:21:48.605Z,49.74
2022-08-05T20:27:11.664Z,49.77
2022-08-05T20:32:32.381Z,50.27
2022-08-05T20:38:06.227Z,50.21
2022-08-05T20:43:57.571Z,50.42
2022-08-05T20:49:09.604Z,50.58
2022-08-05T20:54:42.819Z,51.04
2022-08-05T21:00:34.961Z,51.23
2022-08-05T21:05:57.269Z,51.41
2022-08-05T21:12:08.890Z,51.77
2022-08-05T21:17:00.851Z,52.03
2022-08-05T21:22:23.322Z,52.00
2022-08-05T21:27:47.525Z,51.74
2022-08-05T21:37:53.436Z,51.47
2022-08-05T21:43:17.848Z,51.36
2022-08-05T21:48:45.783Z,51.07
2022-08-05T21:54:06.913Z,51.46
2022-08-05T21:59:48.061Z,50.99
2022-08-05T22:05:12.444Z,51.39
2022-08-05T22:10:33.100Z,51.29
2022-08-05T22:16:02.729Z,51.18
2022-08-05T22:21:32.056Z,50.93
2022-08-05T22:27:13.961Z,51.26
2022-08-05T22:32:37.242Z,51.32
2022-08-05T22:38:01.001Z,51.61
2022-08-05T22:43:37.015Z,51.96
2022-08-05T22:48:58.856Z,52.32
2022-08-05T22:54:19.591Z,52.50
2022-08-05T22:59:51.836Z,53.05
2022-08-05T23:05:15.425Z,53.32
2022-08-05T23:10:35.887Z,53.67
2022-08-05T23:16:00.165Z,54.18
2022-08-05T23:21:21.248Z,54.60
2022-08-05T23:26:41.828Z,54.78
2022-08-05T23:32:05.470Z,54.99
2022-08-05T23:37:26.618Z,55.37
2022-08-05T23:42:54.789Z,55.53
2022-08-05T23:48:15.584Z,55.90
2022-08-05T23:53:46.942Z,56.09
2022-08-05T23:59:07.703Z,56.29
